createdAt,value
2024-02-20T00:00:07.608Z,7.82
2024-02-20T00:02:44.653Z,6.68
2024-02-20T00:05:12.156Z,7.63
2024-02-20T00:07:40.102Z,9.55
2024-02-20T00:10:15.057Z,7.90
2024-02-20T00:12:43.618Z,8.55
2024-02-20T00:15:10.659Z,8.95
2024-02-20T00:17:41.404Z,10.77
2024-02-20T00:20:09.732Z,11.52
2024-02-20T00:22:37.031Z,11.68
2024-02-20T00:25:05.033Z,10.30
2024-02-20T00:27:33.061Z,9.10
2024-02-20T00:30:00.260Z,9.90
2024-02-20T00:32:27.319Z,11.55
2024-02-20T00:34:54.185Z,10.07
2024-02-20T00:37:21.640Z,8.73
2024-02-20T00:39:48.647Z,9.52
2024-02-20T00:42:15.549Z,9.15
2024-02-20T00:44:42.384Z,8.07
2024-02-20T00:47:11.312Z,8.77
2024-02-20T00:49:41.729Z,8.63
2024-02-20T00:52:09.013Z,5.95
2024-02-20T00:54:42.042Z,8.00
2024-02-20T00:57:10.556Z,7.70
2024-02-20T00:59:37.494Z,6.28
2024-02-20T01:02:05.491Z,5.55
2024-02-20T01:04:32.309Z,4.72
2024-02-20T01:06:59.132Z,6.13
2024-02-20T01:09:25.833Z,4.68
2024-02-20T01:11:52.516Z,4.78
2024-02-20T01:14:19.145Z,6.82
2024-02-20T01:16:45.914Z,5.80
2024-02-20T01:19:12.822Z,4.45
2024-02-20T01:21:39.582Z,5.00
2024-02-20T01:24:06.643Z,4.88
2024-02-20T01:26:33.409Z,5.03
2024-02-20T01:29:00.133Z,5.28
2024-02-20T01:31:26.967Z,8.02
2024-02-20T01:33:54.988Z,5.00
2024-02-20T01:36:21.765Z,5.90
2024-02-20T01:38:48.560Z,4.25
2024-02-20T01:41:15.265Z,4.47
2024-02-20T01:43:41.947Z,4.88
2024-02-20T01:46:09.814Z,5.32
2024-02-20T01:48:36.853Z,5.72
2024-02-20T01:51:03.880Z,5.32
2024-02-20T01:53:31.521Z,5.50
2024-02-20T01:56:01.934Z,5.75
2024-02-20T01:58:29.349Z,5.45
2024-02-20T02:05:34.310Z,4.60
2024-02-20T02:08:01.324Z,5.90
2024-02-20T02:10:28.199Z,6.47
2024-02-20T02:12:55.011Z,6.10
2024-02-20T02:15:21.732Z,5.90
2024-02-20T02:17:48.535Z,7.13
2024-02-20T02:20:15.400Z,5.60
2024-02-20T02:22:42.203Z,6.32
2024-02-20T02:25:09.436Z,6.15
2024-02-20T02:27:39.275Z,5.70
2024-02-20T02:30:08.936Z,7.00
2024-02-20T02:32:36.220Z,6.40
2024-02-20T02:35:03.910Z,7.70
2024-02-20T02:37:30.736Z,6.65
2024-02-20T02:39:57.495Z,5.47
2024-02-20T02:42:24.276Z,8.20
2024-02-20T02:44:50.963Z,7.32
2024-02-20T02:47:17.642Z,6.55
2024-02-20T02:49:44.461Z,5.25
2024-02-20T02:52:11.243Z,5.85
2024-02-20T02:54:37.923Z,6.30
2024-02-20T02:57:05.112Z,6.43
2024-02-20T02:59:31.846Z,7.18
2024-02-20T03:01:58.661Z,7.80
2024-02-20T03:04:25.407Z,7.40
2024-02-20T03:06:52.147Z,7.82
2024-02-20T03:09:19.621Z,6.18
2024-02-20T03:11:46.293Z,7.57
2024-02-20T03:14:13.482Z,7.55
2024-02-20T03:16:41.249Z,7.38
2024-02-20T03:19:08.137Z,6.68
2024-02-20T03:21:36.488Z,8.85
2024-02-20T03:24:05.853Z,6.68
2024-02-20T03:26:32.531Z,7.00
2024-02-20T03:28:59.241Z,6.25
2024-02-20T03:31:25.956Z,6.95
2024-02-20T03:33:53.278Z,7.63
2024-02-20T03:36:20.042Z,7.07
2024-02-20T03:38:46.709Z,7.90
2024-02-20T03:41:13.405Z,7.90
2024-02-20T03:43:40.418Z,7.65
2024-02-20T03:46:07.414Z,7.72
2024-02-20T03:48:34.512Z,6.15
2024-02-20T03:51:01.844Z,5.80
2024-02-20T03:53:29.203Z,6.47
2024-02-20T03:55:56.061Z,6.97
2024-02-20T03:58:22.881Z,7.00
2024-02-20T04:00:49.698Z,6.63
2024-02-20T04:03:16.621Z,6.78
2024-02-20T04:05:43.370Z,6.15
2024-02-20T04:08:10.042Z,7.50
2024-02-20T04:10:36.736Z,7.47
2024-02-20T04:13:03.543Z,8.35
2024-02-20T04:15:30.385Z,6.68
2024-02-20T04:17:57.100Z,6.60
2024-02-20T04:20:23.988Z,6.97
2024-02-20T04:22:50.634Z,7.30
2024-02-20T04:25:17.342Z,6.40
2024-02-20T04:27:46.161Z,7.68
2024-02-20T04:30:13.323Z,5.82
2024-02-20T04:32:40.282Z,5.25
2024-02-20T04:35:07.792Z,6.57
2024-02-20T04:37:34.935Z,7.05
2024-02-20T04:40:01.974Z,7.22
2024-02-20T04:42:28.999Z,6.45
2024-02-20T04:44:55.670Z,7.47
2024-02-20T04:47:24.288Z,6.07
2024-02-20T04:49:53.443Z,6.30
2024-02-20T04:52:20.530Z,6.10
2024-02-20T04:54:47.396Z,7.07
2024-02-20T04:57:14.189Z,6.55
2024-02-20T04:59:45.371Z,6.20
2024-02-20T05:02:14.369Z,6.15
2024-02-20T05:04:41.147Z,6.55
2024-02-20T05:07:08.181Z,7.00
2024-02-20T05:09:34.902Z,6.95
2024-02-20T05:12:01.631Z,7.35
2024-02-20T05:14:28.990Z,6.32
2024-02-20T05:16:55.726Z,6.97
2024-02-20T05:19:22.503Z,6.72
2024-02-20T05:21:49.258Z,6.88
2024-02-20T05:24:15.907Z,6.55
2024-02-20T05:26:42.653Z,6.78
2024-02-20T05:29:09.402Z,7.50
2024-02-20T05:31:36.271Z,7.45
2024-02-20T05:34:04.611Z,7.47
2024-02-20T05:36:32.466Z,7.43
2024-02-20T05:39:02.985Z,7.60
2024-02-20T05:41:31.842Z,6.63
2024-02-20T05:44:00.811Z,6.28
2024-02-20T05:46:30.146Z,7.07
2024-02-20T05:48:57.741Z,7.22
2024-02-20T05:51:25.946Z,7.93
2024-02-20T05:53:53.023Z,7.13
2024-02-20T05:56:24.519Z,7.80
2024-02-20T05:58:51.261Z,8.13
2024-02-20T06:01:18.455Z,10.07
2024-02-20T06:03:46.355Z,9.05
2024-02-20T06:06:14.343Z,9.57
2024-02-20T06:08:44.106Z,8.52
2024-02-20T06:11:14.786Z,10.10
2024-02-20T06:13:42.516Z,8.00
2024-02-20T06:16:09.749Z,8.10
2024-02-20T06:18:36.649Z,9.38
2024-02-20T06:21:03.884Z,11.05
2024-02-20T06:23:30.601Z,11.18
2024-02-20T06:25:57.339Z,10.98
2024-02-20T06:28:24.116Z,9.68
2024-02-20T06:30:51.457Z,11.15
2024-02-20T06:33:18.384Z,10.88
2024-02-20T06:35:45.383Z,10.63
2024-02-20T06:38:12.072Z,10.88
2024-02-20T06:40:39.078Z,10.35
2024-02-20T06:43:05.794Z,11.18
2024-02-20T06:45:32.457Z,12.25
2024-02-20T06:47:59.215Z,11.88
2024-02-20T06:50:25.920Z,11.88
2024-02-20T06:52:55.483Z,13.88
2024-02-20T06:55:22.297Z,13.68
2024-02-20T06:57:49.291Z,12.98
2024-02-20T07:00:16.848Z,12.70
2024-02-20T07:02:43.809Z,12.02
2024-02-20T07:05:12.043Z,11.63
2024-02-20T07:07:39.652Z,11.38
2024-02-20T07:10:08.423Z,10.57
2024-02-20T07:12:35.654Z,11.85
2024-02-20T07:15:04.326Z,12.63
2024-02-20T07:17:31.282Z,12.02
2024-02-20T07:19:58.133Z,11.95
2024-02-20T07:22:25.753Z,12.30
2024-02-20T07:24:52.546Z,11.30
2024-02-20T07:27:19.498Z,11.00
2024-02-20T07:29:47.547Z,12.02
2024-02-20T07:32:14.285Z,13.65
2024-02-20T07:34:42.124Z,12.93
2024-02-20T07:37:09.068Z,12.88
2024-02-20T07:39:37.776Z,12.80
2024-02-20T07:42:06.734Z,12.05
2024-02-20T07:44:33.357Z,12.45
2024-02-20T07:47:00.191Z,13.75
2024-02-20T07:49:27.325Z,13.82
2024-02-20T07:51:54.134Z,12.27
2024-02-20T07:54:20.795Z,12.52
2024-02-20T07:56:48.573Z,11.70
2024-02-20T07:59:18.080Z,12.52
2024-02-20T08:01:54.317Z,13.70
2024-02-20T08:04:21.508Z,13.05
2024-02-20T08:06:48.564Z,12.35
2024-02-20T08:09:15.508Z,13.43
2024-02-20T08:11:42.605Z,12.57
2024-02-20T08:14:10.526Z,12.45
2024-02-20T08:16:38.702Z,11.95
2024-02-20T08:19:05.828Z,12.43
2024-02-20T08:21:33.521Z,12.00
2024-02-20T08:24:01.460Z,11.75
2024-02-20T08:26:28.473Z,12.18
2024-02-20T08:28:55.339Z,13.13
2024-02-20T08:31:22.114Z,11.98
2024-02-20T08:33:49.536Z,11.77
2024-02-20T08:36:18.756Z,11.25
2024-02-20T08:38:49.365Z,12.07
2024-02-20T08:41:16.214Z,12.32
2024-02-20T08:43:46.053Z,11.80
2024-02-20T08:46:12.774Z,12.63
2024-02-20T08:48:39.495Z,10.93
2024-02-20T08:51:06.210Z,11.82
2024-02-20T08:53:32.908Z,11.10
2024-02-20T08:55:59.777Z,11.60
2024-02-20T08:58:26.786Z,10.95
2024-02-20T09:00:53.841Z,13.27
2024-02-20T09:03:20.683Z,13.52
2024-02-20T09:05:47.815Z,11.85
2024-02-20T09:08:15.970Z,13.50
2024-02-20T09:10:42.769Z,14.07
2024-02-20T09:13:09.534Z,11.75
2024-02-20T09:15:36.953Z,11.88
2024-02-20T09:18:04.792Z,12.77
2024-02-20T09:20:31.780Z,12.68
2024-02-20T09:22:58.569Z,12.05
2024-02-20T09:25:25.376Z,15.48
2024-02-20T09:27:52.071Z,12.90
2024-02-20T09:30:18.898Z,13.75
2024-02-20T09:32:46.123Z,13.85
2024-02-20T09:35:13.390Z,14.95
2024-02-20T09:37:40.220Z,15.75
2024-02-20T09:40:09.536Z,13.73
2024-02-20T09:42:48.166Z,14.52
2024-02-20T09:45:24.998Z,13.60
2024-02-20T09:47:55.720Z,13.60
2024-02-20T09:50:24.431Z,14.20
2024-02-20T09:52:54.948Z,13.63
2024-02-20T09:55:25.274Z,15.82
2024-02-20T09:57:52.729Z,15.43
2024-02-20T10:00:21.216Z,14.18
2024-02-20T10:02:49.893Z,14.77
2024-02-20T10:05:18.393Z,15.05
2024-02-20T10:07:46.419Z,15.18
2024-02-20T10:10:17.553Z,15.80
2024-02-20T10:12:45.740Z,16.77
2024-02-20T10:15:14.468Z,16.08
2024-02-20T10:17:41.487Z,16.13
2024-02-20T10:20:14.093Z,16.77
2024-02-20T10:22:45.385Z,14.85
2024-02-20T10:25:15.150Z,15.00
2024-02-20T10:27:42.942Z,15.98
2024-02-20T10:30:10.339Z,16.70
2024-02-20T10:32:38.980Z,15.30
2024-02-20T10:35:10.760Z,17.30
2024-02-20T10:37:39.511Z,17.23
2024-02-20T10:40:22.107Z,16.33
2024-02-20T10:42:59.353Z,18.83
2024-02-20T10:45:28.343Z,17.27
2024-02-20T10:47:59.480Z,16.67
2024-02-20T10:50:26.923Z,16.77
2024-02-20T10:53:00.997Z,16.83
2024-02-20T10:55:33.189Z,19.45
2024-02-20T10:58:05.230Z,16.08
2024-02-20T11:00:36.469Z,16.95
2024-02-20T11:03:06.645Z,17.73
2024-02-20T11:05:33.966Z,16.45
2024-02-20T11:08:12.482Z,16.23
2024-02-20T11:10:41.672Z,16.17
2024-02-20T11:13:29.879Z,15.35
2024-02-20T11:15:56.681Z,16.08
2024-02-20T11:18:25.829Z,15.25
2024-02-20T11:21:04.445Z,15.32
2024-02-20T11:23:32.776Z,15.27
2024-02-20T11:26:08.828Z,15.90
2024-02-20T11:28:37.400Z,13.32
2024-02-20T11:31:05.419Z,13.45
2024-02-20T11:33:33.093Z,14.05
2024-02-20T11:36:00.968Z,13.07
2024-02-20T11:38:31.249Z,12.57
2024-02-20T11:40:58.027Z,11.63
2024-02-20T11:43:27.003Z,11.48
2024-02-20T11:46:01.510Z,11.75
2024-02-20T11:48:32.561Z,11.15
2024-02-20T11:51:00.713Z,11.50
2024-02-20T11:53:27.798Z,10.85
2024-02-20T11:55:56.152Z,10.82
2024-02-20T11:58:27.655Z,11.70
2024-02-20T12:01:04.486Z,10.27
2024-02-20T12:03:38.204Z,9.57
2024-02-20T12:06:11.316Z,10.05
2024-02-20T12:08:43.075Z,11.02
2024-02-20T12:11:15.258Z,8.00
2024-02-20T12:13:42.523Z,8.95
2024-02-20T12:16:21.430Z,7.90
2024-02-20T12:18:50.263Z,7.80
2024-02-20T12:21:18.053Z,8.38
2024-02-20T12:23:55.512Z,7.70
2024-02-20T12:26:23.193Z,8.95
2024-02-20T12:28:50.787Z,7.13
2024-02-20T12:31:31.603Z,7.13
2024-02-20T12:34:00.881Z,8.30
2024-02-20T12:36:30.462Z,7.82
2024-02-20T12:38:58.088Z,7.60
2024-02-20T12:41:24.967Z,5.35
2024-02-20T12:43:52.148Z,7.10
2024-02-20T12:46:19.023Z,6.68
2024-02-20T12:48:54.975Z,4.95
2024-02-20T12:51:23.046Z,5.70
2024-02-20T12:53:50.007Z,6.47
2024-02-20T12:56:16.708Z,6.28
2024-02-20T12:58:46.935Z,5.18
2024-02-20T13:01:15.539Z,6.88
2024-02-20T13:03:42.770Z,5.68
2024-02-20T13:06:09.895Z,6.20
2024-02-20T13:08:36.677Z,6.80
2024-02-20T13:11:03.733Z,6.68
2024-02-20T13:13:30.515Z,6.63
2024-02-20T13:15:57.322Z,5.85
2024-02-20T13:18:24.108Z,5.53
2024-02-20T13:20:51.140Z,6.38
2024-02-20T13:23:17.837Z,5.88
2024-02-20T13:25:45.598Z,6.28
2024-02-20T13:28:15.182Z,6.55
2024-02-20T13:30:43.195Z,6.78
2024-02-20T13:33:09.950Z,5.82
2024-02-20T13:35:36.780Z,6.57
2024-02-20T13:38:03.834Z,8.20
2024-02-20T13:40:30.776Z,6.07
2024-02-20T13:42:58.579Z,6.03
2024-02-20T13:45:25.354Z,5.28
2024-02-20T13:47:52.426Z,6.35
2024-02-20T13:50:19.289Z,6.63
2024-02-20T13:52:46.018Z,5.28
2024-02-20T13:55:15.362Z,4.97
2024-02-20T13:57:42.283Z,5.85
2024-02-20T14:00:09.912Z,5.68
2024-02-20T14:02:42.373Z,4.97
2024-02-20T14:05:09.476Z,5.20
2024-02-20T14:07:36.489Z,5.43
2024-02-20T14:10:04.561Z,4.35
2024-02-20T14:12:31.423Z,6.10
2024-02-20T14:14:59.620Z,5.75
2024-02-20T14:17:28.111Z,5.20
2024-02-20T14:19:55.093Z,6.07
2024-02-20T14:22:23.256Z,4.35
2024-02-20T14:24:50.021Z,4.97
2024-02-20T14:27:16.683Z,5.32
2024-02-20T14:29:43.375Z,4.65
2024-02-20T14:32:10.934Z,5.10
2024-02-20T14:34:37.977Z,4.75
2024-02-20T14:37:08.104Z,4.80
2024-02-20T14:39:36.055Z,3.05
2024-02-20T14:42:03.013Z,4.07
2024-02-20T14:44:29.742Z,4.50
2024-02-20T14:46:56.852Z,4.57
2024-02-20T14:49:25.774Z,3.80
2024-02-20T14:51:52.607Z,3.40
2024-02-20T14:54:20.671Z,3.70
2024-02-20T14:56:49.877Z,3.38
2024-02-20T14:59:17.162Z,3.78
2024-02-20T15:01:48.082Z,3.00
2024-02-20T15:04:15.260Z,5.05
2024-02-20T15:06:44.254Z,3.70
2024-02-20T15:09:11.642Z,3.20
2024-02-20T15:11:39.692Z,3.30
2024-02-20T15:14:06.564Z,3.40
2024-02-20T15:16:33.357Z,4.47
2024-02-20T15:19:00.099Z,4.50
2024-02-20T15:21:26.974Z,4.32
2024-02-20T15:23:53.761Z,3.47
2024-02-20T15:26:20.479Z,3.17
2024-02-20T15:28:48.648Z,4.82
2024-02-20T15:31:15.464Z,4.18
2024-02-20T15:33:42.499Z,3.67
2024-02-20T15:36:11.410Z,3.17
2024-02-20T15:38:38.363Z,3.40
2024-02-20T15:41:06.309Z,3.47
2024-02-20T15:43:34.267Z,3.90
2024-02-20T15:46:01.122Z,3.30
2024-02-20T15:48:27.855Z,4.57
2024-02-20T15:50:55.212Z,3.92
2024-02-20T15:53:23.551Z,5.32
2024-02-20T15:55:51.696Z,3.90
2024-02-20T16:00:52.257Z,3.85
2024-02-20T16:03:19.129Z,3.88
2024-02-20T16:05:46.683Z,3.55
2024-02-20T16:08:16.533Z,4.05
2024-02-20T16:10:43.726Z,3.88
2024-02-20T16:13:10.598Z,3.65
2024-02-20T16:15:37.423Z,4.57
2024-02-20T16:18:04.412Z,3.95
2024-02-20T16:20:31.296Z,3.70
2024-02-20T16:23:00.061Z,4.72
2024-02-20T16:25:27.441Z,4.75
2024-02-20T16:27:54.910Z,4.07
2024-02-20T16:30:21.797Z,3.92
2024-02-20T16:32:48.827Z,4.68
2024-02-20T16:35:16.122Z,4.15
2024-02-20T16:37:43.148Z,5.20
2024-02-20T16:40:11.160Z,4.05
2024-02-20T16:42:38.300Z,4.05
2024-02-20T16:45:06.203Z,7.95
2024-02-20T16:47:35.443Z,9.10
2024-02-20T16:50:03.058Z,6.95
2024-02-20T16:52:29.973Z,5.43
2024-02-20T16:54:57.506Z,4.03
2024-02-20T16:57:24.309Z,4.05
2024-02-20T16:59:52.718Z,4.47
2024-02-20T17:02:19.582Z,4.45
2024-02-20T17:04:46.647Z,3.90
2024-02-20T17:07:17.428Z,4.15
2024-02-20T17:09:49.382Z,4.93
2024-02-20T17:12:16.733Z,5.10
2024-02-20T17:14:45.112Z,4.72
2024-02-20T17:17:11.836Z,4.90
2024-02-20T17:19:38.977Z,5.45
2024-02-20T17:22:06.108Z,4.57
2024-02-20T17:24:32.988Z,4.25
2024-02-20T17:26:59.670Z,5.07
2024-02-20T17:29:26.860Z,4.43
2024-02-20T17:31:55.657Z,4.63
2024-02-20T17:34:22.852Z,5.97
2024-02-20T17:36:51.985Z,4.40
2024-02-20T17:39:18.987Z,5.35
2024-02-20T17:41:45.673Z,4.70
2024-02-20T17:44:12.388Z,5.25
2024-02-20T17:46:39.644Z,4.75
2024-02-20T17:49:06.466Z,6.60
2024-02-20T17:51:33.761Z,5.45
2024-02-20T17:54:00.428Z,4.28
2024-02-20T17:56:27.104Z,4.63
2024-02-20T17:58:53.911Z,4.57
2024-02-20T18:01:22.695Z,5.97
2024-02-20T18:03:50.046Z,5.10
2024-02-20T18:06:17.048Z,5.60
2024-02-20T18:08:44.136Z,5.18
2024-02-20T18:11:13.432Z,5.25
2024-02-20T18:13:40.315Z,5.60
2024-02-20T18:16:07.717Z,6.28
2024-02-20T18:18:34.575Z,5.80
2024-02-20T18:21:02.562Z,4.57
2024-02-20T18:23:30.317Z,5.43
2024-02-20T18:25:57.701Z,5.25
2024-02-20T18:28:24.959Z,5.65
2024-02-20T18:30:51.764Z,5.55
2024-02-20T18:33:19.227Z,5.50
2024-02-20T18:35:46.613Z,5.28
2024-02-20T18:38:13.594Z,5.05
2024-02-20T18:40:40.452Z,5.05
2024-02-20T18:43:07.756Z,4.53
2024-02-20T18:45:35.179Z,5.40
2024-02-20T18:48:02.068Z,4.97
2024-02-20T18:50:29.015Z,5.70
2024-02-20T18:52:55.885Z,5.70
2024-02-20T18:55:22.731Z,5.22
2024-02-20T18:57:49.707Z,6.88
2024-02-20T19:00:16.745Z,5.40
2024-02-20T19:02:43.457Z,4.97
2024-02-20T19:05:10.463Z,5.32
2024-02-20T19:07:41.208Z,5.55
2024-02-20T19:10:11.894Z,5.10
2024-02-20T19:12:38.831Z,5.43
2024-02-20T19:15:06.409Z,5.35
2024-02-20T19:17:33.399Z,5.63
2024-02-20T19:20:01.744Z,5.43
2024-02-20T19:22:32.010Z,4.82
2024-02-20T19:25:01.172Z,6.15
2024-02-20T19:27:27.912Z,5.78
2024-02-20T19:29:57.538Z,5.05
2024-02-20T19:32:25.439Z,5.57
2024-02-20T19:34:52.178Z,6.32
2024-02-20T19:37:19.059Z,5.40
2024-02-20T19:39:45.793Z,5.47
2024-02-20T19:42:12.512Z,4.95
2024-02-20T19:44:40.422Z,5.05
2024-02-20T19:47:08.738Z,5.22
2024-02-20T19:49:35.740Z,5.68
2024-02-20T19:52:02.560Z,5.68
2024-02-20T19:54:29.370Z,4.60
2024-02-20T19:56:57.613Z,5.97
2024-02-20T19:59:24.371Z,5.10
2024-02-20T20:01:51.154Z,4.93
2024-02-20T20:04:18.038Z,6.15
2024-02-20T20:06:45.674Z,6.57
2024-02-20T20:09:14.413Z,5.82
2024-02-20T20:11:44.792Z,6.10
2024-02-20T20:14:12.284Z,6.75
2024-02-20T20:16:39.583Z,5.63
2024-02-20T20:19:10.174Z,6.43
2024-02-20T20:21:37.453Z,5.47
2024-02-20T20:24:13.861Z,6.38
2024-02-20T20:26:45.939Z,5.45
2024-02-20T20:29:12.757Z,5.50
2024-02-20T20:31:41.409Z,4.65
2024-02-20T20:34:08.438Z,5.80
2024-02-20T20:36:36.818Z,6.18
2024-02-20T20:39:06.075Z,5.03
2024-02-20T20:41:34.657Z,4.80
2024-02-20T20:44:01.686Z,4.88
2024-02-20T20:46:29.450Z,5.68
2024-02-20T20:48:56.312Z,5.70
2024-02-20T20:51:23.066Z,4.45
2024-02-20T20:53:49.779Z,5.95
2024-02-20T20:56:16.625Z,5.55
2024-02-20T20:58:43.580Z,4.93
2024-02-20T21:01:10.534Z,6.70
2024-02-20T21:03:37.300Z,7.07
2024-02-20T21:06:05.569Z,4.93
2024-02-20T21:08:32.608Z,5.20
2024-02-20T21:10:59.756Z,5.15
2024-02-20T21:13:27.148Z,5.63
2024-02-20T21:15:54.061Z,5.78
2024-02-20T21:18:20.850Z,5.78
2024-02-20T21:20:47.783Z,6.90
2024-02-20T21:23:18.579Z,6.03
2024-02-20T21:25:47.616Z,6.35
2024-02-20T21:28:14.752Z,6.10
2024-02-20T21:30:44.899Z,6.60
2024-02-20T21:33:12.409Z,6.95
2024-02-20T21:35:39.314Z,6.35
2024-02-20T21:38:07.668Z,6.82
2024-02-20T21:40:34.715Z,6.55
2024-02-20T21:43:01.558Z,7.18
2024-02-20T21:45:28.267Z,8.52
2024-02-20T21:47:56.172Z,8.50
2024-02-20T21:50:23.206Z,8.13
2024-02-20T21:52:51.785Z,8.13
2024-02-20T21:55:18.935Z,7.95
2024-02-20T21:57:45.671Z,8.07
2024-02-20T22:00:13.339Z,8.10
2024-02-20T22:02:40.227Z,8.13
2024-02-20T22:05:07.710Z,8.10
2024-02-20T22:07:34.706Z,8.40
2024-02-20T22:10:01.705Z,9.93
2024-02-20T22:12:28.567Z,9.48
2024-02-20T22:14:55.265Z,9.77
2024-02-20T22:17:21.994Z,8.05
2024-02-20T22:19:48.806Z,9.27
2024-02-20T22:22:15.764Z,8.10
2024-02-20T22:24:42.832Z,9.80
2024-02-20T22:27:10.693Z,10.38
2024-02-20T22:29:37.551Z,11.10
2024-02-20T22:32:04.970Z,9.60
2024-02-20T22:34:31.878Z,9.15
2024-02-20T22:36:58.666Z,8.35
2024-02-20T22:39:25.430Z,9.48
2024-02-20T22:41:52.300Z,9.65
2024-02-20T22:44:20.683Z,9.60
2024-02-20T22:46:49.660Z,9.65
2024-02-20T22:49:16.461Z,9.02
2024-02-20T22:51:43.185Z,8.70
2024-02-20T22:54:09.873Z,9.35
2024-02-20T22:56:36.705Z,10.45
2024-02-20T22:59:03.472Z,7.60
2024-02-20T23:01:31.520Z,10.13
2024-02-20T23:03:58.320Z,8.40
2024-02-20T23:06:25.297Z,8.38
2024-02-20T23:08:52.184Z,9.35
2024-02-20T23:11:19.007Z,9.38
2024-02-20T23:13:46.143Z,8.55
2024-02-20T23:16:12.977Z,9.32
2024-02-20T23:18:39.856Z,10.57
2024-02-20T23:21:06.579Z,8.90
2024-02-20T23:23:33.630Z,9.00
2024-02-20T23:26:00.477Z,9.88
2024-02-20T23:28:27.323Z,9.60
2024-02-20T23:30:54.088Z,8.85
2024-02-20T23:33:21.409Z,9.07
2024-02-20T23:35:48.199Z,9.57
2024-02-20T23:38:14.868Z,8.30
2024-02-20T23:40:41.516Z,9.00
2024-02-20T23:43:08.300Z,9.10
2024-02-20T23:45:34.985Z,9.77
2024-02-20T23:48:01.797Z,7.95
2024-02-20T23:50:28.512Z,9.23
2024-02-20T23:52:55.671Z,8.23
2024-02-20T23:55:23.450Z,8.98
2024-02-20T23:57:50.363Z,9.32
